createdAt,value
2018-09-18T00:00:23.078Z,0
2018-09-18T00:01:31.728Z,0
2018-09-18T00:02:40.634Z,0
2018-09-18T00:03:49.539Z,0
2018-09-18T00:04:58.182Z,0
2018-09-18T00:06:06.835Z,0
2018-09-18T00:07:15.990Z,0
2018-09-18T00:08:25.170Z,0
2018-09-18T00:09:33.804Z,0
2018-09-18T00:10:42.458Z,0
2018-09-18T00:11:51.098Z,0
2018-09-18T00:12:59.748Z,0
2018-09-18T00:14:08.383Z,0
2018-09-18T00:15:17.037Z,0
2018-09-18T00:16:25.680Z,0
2018-09-18T00:17:34.336Z,0
2018-09-18T00:18:42.968Z,0
2018-09-18T00:19:51.877Z,0
2018-09-18T00:21:00.525Z,0
2018-09-18T00:22:09.171Z,0
2018-09-18T00:23:17.818Z,0
2018-09-18T00:24:26.452Z,0
2018-09-18T00:25:35.103Z,0
2018-09-18T00:26:44.003Z,0
2018-09-18T00:27:52.656Z,0
2018-09-18T00:29:01.293Z,0
2018-09-18T00:30:10.214Z,0
2018-09-18T00:31:18.852Z,0
2018-09-18T00:32:27.772Z,0
2018-09-18T00:33:36.407Z,0
2018-09-18T00:34:45.052Z,0
2018-09-18T00:35:53.694Z,0
2018-09-18T00:37:02.347Z,0
2018-09-18T00:38:10.989Z,0
2018-09-18T00:39:19.634Z,0
2018-09-18T00:40:28.274Z,0
2018-09-18T00:41:36.918Z,0
2018-09-18T00:42:45.574Z,0
2018-09-18T00:43:54.215Z,0
2018-09-18T00:45:02.861Z,0
2018-09-18T00:46:11.495Z,0
2018-09-18T00:47:20.145Z,0
2018-09-18T00:48:28.794Z,0
2018-09-18T00:49:37.433Z,0
2018-09-18T00:50:46.086Z,0
2018-09-18T00:51:54.722Z,0
2018-09-18T00:53:03.370Z,0
2018-09-18T00:54:12.012Z,0
2018-09-18T00:55:20.666Z,0
2018-09-18T00:56:29.306Z,0
2018-09-18T00:57:37.948Z,0
2018-09-18T00:58:46.592Z,0
2018-09-18T00:59:55.232Z,0
2018-09-18T01:01:03.885Z,0
2018-09-18T01:02:12.790Z,0
2018-09-18T01:03:21.440Z,0
2018-09-18T01:04:30.074Z,0
2018-09-18T01:05:38.728Z,0
2018-09-18T01:06:47.633Z,0
2018-09-18T01:07:56.284Z,0
2018-09-18T01:09:05.179Z,0
2018-09-18T01:10:15.683Z,0
2018-09-18T01:11:24.324Z,0
2018-09-18T01:12:32.970Z,0
2018-09-18T01:13:41.609Z,0
2018-09-18T01:14:50.256Z,0
2018-09-18T01:15:58.898Z,0
2018-09-18T01:17:07.544Z,0
2018-09-18T01:18:16.190Z,0
2018-09-18T01:19:24.827Z,0
2018-09-18T01:20:33.475Z,0
2018-09-18T01:21:42.115Z,0
2018-09-18T01:22:50.768Z,0
2018-09-18T01:23:59.402Z,0
2018-09-18T01:25:08.325Z,0
2018-09-18T01:26:16.965Z,0
2018-09-18T01:27:25.618Z,0
2018-09-18T01:28:34.250Z,0
2018-09-18T01:29:42.898Z,0
2018-09-18T01:30:51.541Z,0
2018-09-18T01:32:00.196Z,0
2018-09-18T01:33:08.839Z,0
2018-09-18T01:34:17.477Z,0
2018-09-18T01:35:26.120Z,0
2018-09-18T01:36:34.761Z,0
2018-09-18T01:37:43.676Z,0
2018-09-18T01:38:52.318Z,0
2018-09-18T01:40:01.227Z,0
2018-09-18T01:41:09.864Z,0
2018-09-18T01:42:18.520Z,0
2018-09-18T01:43:27.164Z,0
2018-09-18T01:44:35.813Z,0
2018-09-18T01:45:44.450Z,0
2018-09-18T01:46:53.102Z,0
2018-09-18T01:48:01.744Z,0
2018-09-18T01:49:10.390Z,0
2018-09-18T01:50:19.029Z,0
2018-09-18T01:51:27.678Z,0
2018-09-18T01:52:36.582Z,0
2018-09-18T01:53:45.233Z,0
2018-09-18T01:54:53.880Z,0
2018-09-18T01:56:02.523Z,0
2018-09-18T01:57:11.172Z,0
2018-09-18T01:58:19.811Z,0
2018-09-18T01:59:28.462Z,0
2018-09-18T02:00:37.366Z,0
2018-09-18T02:01:46.273Z,0
2018-09-18T02:02:54.917Z,0
2018-09-18T02:04:03.567Z,0
2018-09-18T02:05:12.205Z,0
2018-09-18T02:06:20.852Z,0
2018-09-18T02:07:29.761Z,0
2018-09-18T02:08:38.406Z,0
2018-09-18T02:09:47.047Z,0
2018-09-18T02:10:55.695Z,0
2018-09-18T02:12:04.339Z,0
2018-09-18T02:13:12.985Z,0
2018-09-18T02:14:22.158Z,0
2018-09-18T02:15:30.802Z,0
2018-09-18T02:16:39.445Z,0
2018-09-18T02:17:48.086Z,0
2018-09-18T02:18:56.734Z,0
2018-09-18T02:20:05.379Z,0
2018-09-18T02:21:14.023Z,0
2018-09-18T02:22:22.666Z,0
2018-09-18T02:23:31.313Z,0
2018-09-18T02:24:39.958Z,0
2018-09-18T02:25:48.602Z,0
2018-09-18T02:26:57.247Z,0
2018-09-18T02:28:05.888Z,0
2018-09-18T02:29:14.533Z,0
2018-09-18T02:30:23.455Z,0
2018-09-18T02:31:32.112Z,0
2018-09-18T02:32:41.017Z,0
2018-09-18T02:33:49.658Z,0
2018-09-18T02:34:58.313Z,0
2018-09-18T02:36:06.962Z,0
2018-09-18T02:37:15.607Z,0
2018-09-18T02:38:24.790Z,0
2018-09-18T02:39:33.432Z,0
2018-09-18T02:40:42.348Z,0
2018-09-18T02:41:50.990Z,0
2018-09-18T02:42:59.900Z,0
2018-09-18T02:44:08.812Z,0
2018-09-18T02:45:17.467Z,0
2018-09-18T02:46:26.107Z,0
2018-09-18T02:47:35.011Z,0
2018-09-18T02:48:43.914Z,0
2018-09-18T02:49:52.556Z,0
2018-09-18T02:51:01.213Z,0
2018-09-18T02:52:10.117Z,0
2018-09-18T02:53:18.768Z,0
2018-09-18T02:54:27.666Z,0
2018-09-18T02:55:36.322Z,0
2018-09-18T02:56:44.969Z,0
2018-09-18T02:57:53.622Z,0
2018-09-18T02:59:02.259Z,0
2018-09-18T03:00:11.175Z,0
2018-09-18T03:01:19.817Z,0
2018-09-18T03:02:28.468Z,0
2018-09-18T03:03:37.100Z,0
2018-09-18T03:04:46.024Z,0
2018-09-18T03:05:54.676Z,0
2018-09-18T03:07:03.321Z,0
2018-09-18T03:08:11.968Z,0
2018-09-18T03:09:20.601Z,0
2018-09-18T03:10:29.257Z,0
2018-09-18T03:11:38.166Z,0
2018-09-18T03:12:46.819Z,0
2018-09-18T03:13:55.458Z,0
2018-09-18T03:15:04.105Z,0
2018-09-18T03:16:12.745Z,0
2018-09-18T03:17:21.667Z,0
2018-09-18T03:18:30.823Z,0
2018-09-18T03:19:39.468Z,0
2018-09-18T03:20:48.162Z,0
2018-09-18T03:21:56.765Z,0
2018-09-18T03:23:05.407Z,0
2018-09-18T03:24:14.046Z,0
2018-09-18T03:25:22.690Z,0
2018-09-18T03:26:31.329Z,0
2018-09-18T03:27:39.985Z,0
2018-09-18T03:28:48.616Z,0
2018-09-18T03:29:57.273Z,0
2018-09-18T03:31:06.986Z,0
2018-09-18T03:32:15.923Z,0
2018-09-18T03:33:24.555Z,0
2018-09-18T03:34:33.203Z,0
2018-09-18T03:35:41.852Z,0
2018-09-18T03:36:50.766Z,0
2018-09-18T03:37:59.412Z,0
2018-09-18T03:39:08.059Z,0
2018-09-18T03:40:16.695Z,0
2018-09-18T03:41:25.341Z,0
2018-09-18T03:42:33.990Z,0
2018-09-18T03:43:42.633Z,0
2018-09-18T03:44:51.280Z,0
2018-09-18T03:45:59.919Z,0
2018-09-18T03:47:08.822Z,0
2018-09-18T03:48:17.460Z,0
2018-09-18T03:49:26.108Z,0
2018-09-18T03:50:34.747Z,0
2018-09-18T03:51:43.398Z,0
2018-09-18T03:52:52.040Z,0
2018-09-18T03:54:00.960Z,0
2018-09-18T03:55:09.878Z,0
2018-09-18T03:56:18.528Z,0
2018-09-18T03:57:27.438Z,0
2018-09-18T03:58:36.088Z,0
2018-09-18T03:59:44.995Z,0
2018-09-18T04:00:53.638Z,0
2018-09-18T04:02:02.280Z,0
2018-09-18T04:03:10.927Z,0
2018-09-18T04:04:19.576Z,0
2018-09-18T04:05:28.227Z,0
2018-09-18T04:06:36.869Z,0
2018-09-18T04:07:45.511Z,0
2018-09-18T04:08:54.162Z,0
2018-09-18T04:10:02.805Z,0
2018-09-18T04:11:11.451Z,0
2018-09-18T04:12:20.098Z,0
2018-09-18T04:13:28.750Z,0
2018-09-18T04:14:37.658Z,0
2018-09-18T04:15:46.305Z,0
2018-09-18T04:16:54.947Z,0
2018-09-18T04:18:03.592Z,0
2018-09-18T04:19:12.237Z,0
2018-09-18T04:20:20.886Z,0
2018-09-18T04:21:29.789Z,0
2018-09-18T04:22:38.430Z,0
2018-09-18T04:23:47.073Z,0
2018-09-18T04:24:56.245Z,0
2018-09-18T04:26:04.893Z,0
2018-09-18T04:27:13.798Z,0
2018-09-18T04:28:22.441Z,0
2018-09-18T04:29:31.092Z,0
2018-09-18T04:30:39.740Z,0
2018-09-18T04:31:48.380Z,0
2018-09-18T04:32:57.026Z,0
2018-09-18T04:34:05.666Z,0
2018-09-18T04:35:14.597Z,0
2018-09-18T04:36:23.238Z,0
2018-09-18T04:37:32.145Z,0
2018-09-18T04:38:40.797Z,0
2018-09-18T04:39:49.700Z,0
2018-09-18T04:40:58.614Z,0
2018-09-18T04:42:07.255Z,0
2018-09-18T04:43:15.900Z,0
2018-09-18T04:44:24.549Z,0
2018-09-18T04:45:33.450Z,0
2018-09-18T04:46:42.094Z,0
2018-09-18T04:47:50.741Z,0
2018-09-18T04:48:59.394Z,0
2018-09-18T04:50:08.300Z,0
2018-09-18T04:51:16.958Z,0
2018-09-18T04:52:25.873Z,0
2018-09-18T04:53:34.521Z,0
2018-09-18T04:54:43.462Z,0
2018-09-18T04:55:52.347Z,0
2018-09-18T04:57:00.986Z,0
2018-09-18T04:58:09.632Z,0
2018-09-18T04:59:18.324Z,0
2018-09-18T05:00:27.192Z,0
2018-09-18T05:01:35.836Z,0
2018-09-18T05:02:44.476Z,0
2018-09-18T05:03:53.142Z,0
2018-09-18T05:05:01.788Z,0
2018-09-18T05:06:10.431Z,0
2018-09-18T05:07:19.073Z,0
2018-09-18T05:08:27.718Z,5
2018-09-18T05:09:36.375Z,5
2018-09-18T05:10:45.053Z,5
2018-09-18T05:11:53.695Z,5
2018-09-18T05:13:02.338Z,5
2018-09-18T05:14:11.424Z,5
2018-09-18T05:15:20.601Z,5
2018-09-18T05:16:29.246Z,5
2018-09-18T05:17:37.885Z,10
2018-09-18T05:18:46.535Z,10
2018-09-18T05:19:55.178Z,10
2018-09-18T05:21:03.832Z,10
2018-09-18T05:22:12.733Z,10
2018-09-18T05:23:21.377Z,10
2018-09-18T05:24:30.022Z,15
2018-09-18T05:25:39.044Z,15
2018-09-18T05:26:47.965Z,15
2018-09-18T05:27:56.617Z,15
2018-09-18T05:29:05.517Z,15
2018-09-18T05:30:14.164Z,15
2018-09-18T05:31:22.804Z,20
2018-09-18T05:32:31.451Z,20
2018-09-18T05:33:40.149Z,20
2018-09-18T05:34:48.734Z,25
2018-09-18T05:35:57.381Z,25
2018-09-18T05:37:06.288Z,25
2018-09-18T05:38:14.930Z,30
2018-09-18T05:39:23.569Z,30
2018-09-18T05:40:32.219Z,30
2018-09-18T05:41:40.858Z,35
2018-09-18T05:42:49.504Z,35
2018-09-18T05:43:58.401Z,35
2018-09-18T05:45:07.050Z,35
2018-09-18T05:46:15.957Z,35
2018-09-18T05:47:24.604Z,35
2018-09-18T05:48:33.244Z,40
2018-09-18T05:49:41.885Z,40
2018-09-18T05:50:50.794Z,40
2018-09-18T05:51:59.438Z,40
2018-09-18T05:53:08.084Z,45
2018-09-18T05:54:16.716Z,45
2018-09-18T05:55:25.364Z,45
2018-09-18T05:56:34.003Z,50
2018-09-18T05:57:42.655Z,50
2018-09-18T05:58:51.290Z,50
2018-09-18T05:59:59.940Z,50
2018-09-18T06:01:08.583Z,55
2018-09-18T06:02:17.251Z,55
2018-09-18T06:03:25.868Z,55
2018-09-18T06:04:34.523Z,55
2018-09-18T06:05:43.425Z,60
2018-09-18T06:06:52.079Z,60
2018-09-18T06:08:01.255Z,60
2018-09-18T06:09:09.899Z,60
2018-09-18T06:10:18.539Z,60
2018-09-18T06:11:27.179Z,60
2018-09-18T06:12:36.381Z,60
2018-09-18T06:13:44.896Z,60
2018-09-18T06:14:53.546Z,60
2018-09-18T06:16:02.183Z,60
2018-09-18T06:17:10.841Z,65
2018-09-18T06:18:19.480Z,65
2018-09-18T06:19:28.128Z,65
2018-09-18T06:20:36.763Z,65
2018-09-18T06:21:45.415Z,65
2018-09-18T06:22:54.320Z,65
2018-09-18T06:24:02.967Z,70
2018-09-18T06:25:11.600Z,70
2018-09-18T06:26:20.349Z,70
2018-09-18T06:27:28.896Z,70
2018-09-18T06:28:37.545Z,70
2018-09-18T06:29:46.193Z,70
2018-09-18T06:30:54.830Z,75
2018-09-18T06:32:03.475Z,75
2018-09-18T06:33:12.113Z,75
2018-09-18T06:34:20.767Z,75
2018-09-18T06:35:29.400Z,75
2018-09-18T06:36:38.047Z,75
2018-09-18T06:37:46.945Z,75
2018-09-18T06:38:55.587Z,75
2018-09-18T06:40:04.236Z,80
2018-09-18T06:41:12.878Z,80
2018-09-18T06:42:22.024Z,80
2018-09-18T06:43:30.542Z,80
2018-09-18T06:44:39.193Z,80
2018-09-18T06:45:47.832Z,80
2018-09-18T06:46:57.025Z,80
2018-09-18T06:48:06.213Z,85
2018-09-18T06:49:15.164Z,85
2018-09-18T06:50:24.074Z,85
2018-09-18T06:51:32.716Z,85
2018-09-18T06:52:41.383Z,85
2018-09-18T06:53:50.287Z,85
2018-09-18T06:54:58.932Z,85
2018-09-18T06:56:07.578Z,85
2018-09-18T06:57:16.226Z,85
2018-09-18T06:58:24.868Z,85
2018-09-18T06:59:33.515Z,90
2018-09-18T07:00:42.158Z,85
2018-09-18T07:01:50.820Z,85
2018-09-18T07:02:59.453Z,85
2018-09-18T07:04:08.099Z,85
2018-09-18T07:05:16.740Z,85
2018-09-18T07:06:25.642Z,85
2018-09-18T07:07:34.557Z,85
2018-09-18T07:08:43.743Z,85
2018-09-18T07:09:52.385Z,85
2018-09-18T07:11:01.065Z,85
2018-09-18T07:12:09.716Z,85
2018-09-18T07:13:18.383Z,85
2018-09-18T07:14:27.279Z,90
2018-09-18T07:15:35.917Z,90
2018-09-18T07:16:44.567Z,90
2018-09-18T07:17:53.242Z,90
2018-09-18T07:19:01.855Z,90
2018-09-18T07:20:10.496Z,90
2018-09-18T07:21:19.150Z,90
2018-09-18T07:22:27.790Z,90
2018-09-18T07:23:36.438Z,90
2018-09-18T07:24:45.119Z,90
2018-09-18T07:25:54.031Z,90
2018-09-18T07:27:02.681Z,90
2018-09-18T07:28:11.327Z,90
2018-09-18T07:29:20.028Z,90
2018-09-18T07:30:28.620Z,90
2018-09-18T07:31:37.265Z,95
2018-09-18T07:32:46.182Z,95
2018-09-18T07:33:54.895Z,95
2018-09-18T07:35:03.471Z,95
2018-09-18T07:36:12.140Z,95
2018-09-18T07:37:20.762Z,95
2018-09-18T07:38:29.684Z,95
2018-09-18T07:39:38.327Z,95
2018-09-18T07:40:46.967Z,95
2018-09-18T07:41:55.615Z,95
2018-09-18T07:43:04.258Z,95
2018-09-18T07:44:13.176Z,95
2018-09-18T07:45:21.815Z,95
2018-09-18T07:46:30.735Z,95
2018-09-18T07:47:39.636Z,95
2018-09-18T07:48:48.562Z,100
2018-09-18T07:49:57.203Z,100
2018-09-18T07:51:05.854Z,100
2018-09-18T07:52:14.549Z,100
2018-09-18T07:53:23.151Z,100
2018-09-18T07:54:31.796Z,100
2018-09-18T07:55:40.705Z,100
2018-09-18T07:56:49.344Z,100
2018-09-18T07:57:57.995Z,100
2018-09-18T07:59:06.906Z,100
2018-09-18T08:00:15.559Z,105
2018-09-18T08:01:24.208Z,105
2018-09-18T08:02:32.845Z,105
2018-09-18T08:03:41.497Z,105
2018-09-18T08:04:50.138Z,105
2018-09-18T08:05:58.792Z,105
2018-09-18T08:07:07.690Z,105
2018-09-18T08:08:16.341Z,105
2018-09-18T08:09:25.265Z,105
2018-09-18T08:10:33.903Z,105
2018-09-18T08:11:42.541Z,105
2018-09-18T08:12:51.191Z,105
2018-09-18T08:14:00.104Z,105
2018-09-18T08:15:09.022Z,105
2018-09-18T08:16:17.668Z,105
2018-09-18T08:17:26.312Z,105
2018-09-18T08:18:34.955Z,110
2018-09-18T08:19:43.755Z,110
2018-09-18T08:20:52.256Z,110
2018-09-18T08:22:00.904Z,120
2018-09-18T08:23:09.554Z,110
2018-09-18T08:24:18.192Z,110
2018-09-18T08:25:26.872Z,110
2018-09-18T08:26:35.492Z,110
2018-09-18T08:27:44.161Z,115
2018-09-18T08:28:52.786Z,115
2018-09-18T08:30:01.442Z,115
2018-09-18T08:31:10.351Z,115
2018-09-18T08:32:19.006Z,115
2018-09-18T08:33:27.645Z,115
2018-09-18T08:34:36.299Z,115
2018-09-18T08:35:44.952Z,120
2018-09-18T08:36:53.860Z,120
2018-09-18T08:38:02.507Z,120
2018-09-18T08:39:11.165Z,120
2018-09-18T08:40:20.081Z,120
2018-09-18T08:41:29.053Z,120
2018-09-18T08:42:37.693Z,120
2018-09-18T08:43:46.349Z,120
2018-09-18T08:44:55.269Z,120
2018-09-18T08:46:03.914Z,120
2018-09-18T08:47:12.555Z,120
2018-09-18T08:48:21.225Z,120
2018-09-18T08:49:29.857Z,125
2018-09-18T08:50:38.521Z,125
2018-09-18T08:51:48.005Z,125
2018-09-18T08:52:56.672Z,125
2018-09-18T08:54:05.206Z,125
2018-09-18T08:55:13.829Z,125
2018-09-18T08:56:22.761Z,125
2018-09-18T08:57:31.684Z,130
2018-09-18T08:58:40.606Z,130
2018-09-18T08:59:49.252Z,130
2018-09-18T09:00:57.909Z,130
2018-09-18T09:02:06.585Z,130
2018-09-18T09:03:15.309Z,130
2018-09-18T09:04:24.293Z,130
2018-09-18T09:05:33.257Z,130
2018-09-18T09:06:42.388Z,130
2018-09-18T09:07:51.387Z,130
2018-09-18T09:09:00.004Z,130
2018-09-18T09:10:08.763Z,135
2018-09-18T09:11:17.269Z,135
2018-09-18T09:12:26.199Z,130
2018-09-18T09:13:34.829Z,135
2018-09-18T09:14:43.495Z,135
2018-09-18T09:15:52.162Z,135
2018-09-18T09:17:00.782Z,135
2018-09-18T09:18:09.554Z,135
2018-09-18T09:19:18.096Z,135
2018-09-18T09:20:27.040Z,135
2018-09-18T09:21:35.688Z,135
2018-09-18T09:22:44.442Z,135
2018-09-18T09:23:52.969Z,135
2018-09-18T09:25:01.633Z,135
2018-09-18T09:26:10.579Z,135
2018-09-18T09:27:19.230Z,135
2018-09-18T09:28:27.872Z,135
2018-09-18T09:29:36.549Z,135
2018-09-18T09:30:45.183Z,135
2018-09-18T09:31:53.836Z,135
2018-09-18T09:33:02.514Z,135
2018-09-18T09:34:11.405Z,135
2018-09-18T09:35:20.058Z,135
2018-09-18T09:36:28.757Z,135
2018-09-18T09:37:37.413Z,135
2018-09-18T09:38:46.058Z,135
2018-09-18T09:39:55.305Z,135
2018-09-18T09:41:03.952Z,135
2018-09-18T09:42:12.609Z,135
2018-09-18T09:43:21.256Z,135
2018-09-18T09:44:29.909Z,135
2018-09-18T09:45:38.827Z,135
2018-09-18T09:46:47.482Z,135
2018-09-18T09:47:56.396Z,135
2018-09-18T09:49:05.047Z,135
2018-09-18T09:50:13.969Z,140
2018-09-18T09:51:22.734Z,140
2018-09-18T09:52:31.275Z,140
2018-09-18T09:53:39.919Z,140
2018-09-18T09:54:48.576Z,140
2018-09-18T09:55:57.216Z,140
2018-09-18T09:57:05.874Z,140
2018-09-18T09:58:14.525Z,140
2018-09-18T09:59:23.178Z,140
2018-09-18T10:00:31.825Z,140
2018-09-18T10:01:40.483Z,140
2018-09-18T10:02:49.142Z,140
2018-09-18T10:03:58.133Z,140
2018-09-18T10:05:06.819Z,140
2018-09-18T10:06:15.472Z,140
2018-09-18T10:07:24.125Z,140
2018-09-18T10:08:32.777Z,140
2018-09-18T10:09:41.692Z,140
2018-09-18T10:10:51.085Z,140
2018-09-18T10:11:59.575Z,140
2018-09-18T10:13:08.531Z,140
2018-09-18T10:14:17.180Z,140
2018-09-18T10:15:26.193Z,145
2018-09-18T10:16:34.844Z,145
2018-09-18T10:17:43.524Z,150
2018-09-18T10:18:52.155Z,145
2018-09-18T10:20:00.803Z,145
2018-09-18T10:21:09.459Z,145
2018-09-18T10:22:18.111Z,145
2018-09-18T10:23:26.767Z,145
2018-09-18T10:24:35.430Z,145
2018-09-18T10:25:44.068Z,145
2018-09-18T10:26:53.212Z,145
2018-09-18T10:28:01.804Z,145
2018-09-18T10:29:10.458Z,145
2018-09-18T10:30:19.136Z,145
2018-09-18T10:31:27.763Z,145
2018-09-18T10:32:36.437Z,145
2018-09-18T10:33:45.079Z,145
2018-09-18T10:34:53.989Z,150
2018-09-18T10:36:03.227Z,150
2018-09-18T10:37:11.869Z,150
2018-09-18T10:38:20.822Z,150
2018-09-18T10:39:29.453Z,145
2018-09-18T10:40:38.113Z,150
2018-09-18T10:41:46.831Z,150
2018-09-18T10:42:55.534Z,150
2018-09-18T10:44:04.078Z,150
2018-09-18T10:45:13.021Z,150
2018-09-18T10:46:21.709Z,150
2018-09-18T10:47:30.336Z,150
2018-09-18T10:48:38.983Z,150
2018-09-18T10:49:47.629Z,150
2018-09-18T10:50:56.290Z,150
2018-09-18T10:52:04.941Z,150
2018-09-18T10:53:13.590Z,150
2018-09-18T10:54:22.237Z,150
2018-09-18T10:55:31.322Z,150
2018-09-18T10:56:39.938Z,150
2018-09-18T10:57:48.669Z,150
2018-09-18T10:58:57.584Z,155
2018-09-18T11:00:06.245Z,155
2018-09-18T11:01:15.184Z,155
2018-09-18T11:02:24.062Z,155
2018-09-18T11:03:32.587Z,155
2018-09-18T11:04:41.225Z,155
2018-09-18T11:05:50.006Z,155
2018-09-18T11:06:59.210Z,155
2018-09-18T11:08:09.239Z,155
2018-09-18T11:09:19.641Z,155
2018-09-18T11:10:29.185Z,155
2018-09-18T11:11:38.582Z,155
2018-09-18T11:12:47.241Z,155
2018-09-18T11:13:55.893Z,155
2018-09-18T11:15:04.883Z,155
2018-09-18T11:16:14.085Z,160
2018-09-18T11:17:22.564Z,160
2018-09-18T11:18:32.105Z,160
2018-09-18T11:19:41.948Z,155
2018-09-18T11:20:51.500Z,160
2018-09-18T11:22:01.304Z,160
2018-09-18T11:23:10.722Z,155
2018-09-18T11:24:22.058Z,155
2018-09-18T11:25:32.831Z,155
2018-09-18T11:26:41.859Z,160
2018-09-18T11:27:52.898Z,160
2018-09-18T11:29:02.245Z,160
2018-09-18T11:30:12.078Z,160
2018-09-18T11:31:21.959Z,160
2018-09-18T11:32:31.191Z,160
2018-09-18T11:33:41.518Z,165
2018-09-18T11:34:50.654Z,165
2018-09-18T11:35:59.984Z,160
2018-09-18T11:37:09.393Z,160
2018-09-18T11:38:19.577Z,160
2018-09-18T11:39:28.677Z,160
2018-09-18T11:40:38.435Z,160
2018-09-18T11:41:47.797Z,160
2018-09-18T11:42:57.433Z,160
2018-09-18T11:44:06.676Z,160
2018-09-18T11:45:16.284Z,160
2018-09-18T11:46:25.501Z,155
2018-09-18T11:47:34.997Z,160
2018-09-18T11:48:46.641Z,160
2018-09-18T11:49:56.763Z,160
2018-09-18T11:51:06.355Z,160
2018-09-18T11:52:16.478Z,160
2018-09-18T11:53:26.372Z,160
2018-09-18T11:54:36.275Z,160
2018-09-18T11:55:45.771Z,160
2018-09-18T11:56:55.193Z,155
2018-09-18T11:58:05.102Z,155
2018-09-18T11:59:14.787Z,155
2018-09-18T12:00:24.292Z,155
2018-09-18T12:01:34.096Z,155
2018-09-18T12:02:43.509Z,155
2018-09-18T12:03:53.871Z,155
2018-09-18T12:05:03.199Z,155
2018-09-18T12:06:12.755Z,160
2018-09-18T12:07:22.205Z,155
2018-09-18T12:08:31.936Z,155
2018-09-18T12:09:41.688Z,155
2018-09-18T12:10:51.454Z,155
2018-09-18T12:12:01.225Z,155
2018-09-18T12:13:10.879Z,155
2018-09-18T12:14:20.472Z,155
2018-09-18T12:15:30.220Z,155
2018-09-18T12:16:39.694Z,160
2018-09-18T12:17:49.482Z,155
2018-09-18T12:18:59.599Z,155
2018-09-18T12:20:10.223Z,150
2018-09-18T12:21:19.828Z,150
2018-09-18T12:22:29.415Z,155
2018-09-18T12:23:37.981Z,155
2018-09-18T12:24:46.640Z,155
2018-09-18T12:25:55.568Z,150
2018-09-18T12:27:04.487Z,155
2018-09-18T12:28:13.137Z,155
2018-09-18T12:29:21.853Z,155
2018-09-18T12:30:30.448Z,155
2018-09-18T12:31:39.103Z,155
2018-09-18T12:32:47.761Z,150
2018-09-18T12:33:56.413Z,150
2018-09-18T12:35:05.066Z,160
2018-09-18T12:36:13.721Z,155
2018-09-18T12:37:22.370Z,155
2018-09-18T12:38:31.034Z,160
2018-09-18T12:39:40.213Z,155
2018-09-18T12:40:48.871Z,155
2018-09-18T12:41:57.735Z,155
2018-09-18T12:43:06.185Z,155
2018-09-18T12:44:14.839Z,155
2018-09-18T12:45:23.493Z,155
2018-09-18T12:46:32.400Z,160
2018-09-18T12:47:41.079Z,155
2018-09-18T12:48:50.322Z,160
2018-09-18T12:49:59.129Z,155
2018-09-18T12:51:08.061Z,155
2018-09-18T12:52:16.715Z,155
2018-09-18T12:53:25.370Z,155
2018-09-18T12:54:34.024Z,155
2018-09-18T12:55:42.679Z,155
2018-09-18T12:56:51.459Z,155
2018-09-18T12:57:59.988Z,155
2018-09-18T12:59:09.165Z,155
2018-09-18T13:00:17.867Z,150
2018-09-18T13:01:26.425Z,150
2018-09-18T13:02:35.082Z,150
2018-09-18T13:03:43.746Z,150
2018-09-18T13:04:52.679Z,145
2018-09-18T13:06:01.383Z,145
2018-09-18T13:07:09.997Z,150
2018-09-18T13:08:18.662Z,145
2018-09-18T13:09:27.321Z,150
2018-09-18T13:10:35.975Z,145
2018-09-18T13:11:44.629Z,145
2018-09-18T13:12:53.282Z,145
2018-09-18T13:14:02.106Z,140
2018-09-18T13:15:10.596Z,140
2018-09-18T13:16:19.249Z,140
2018-09-18T13:17:27.931Z,140
2018-09-18T13:18:36.898Z,140
2018-09-18T13:19:45.556Z,140
2018-09-18T13:20:54.667Z,140
2018-09-18T13:22:03.239Z,135
2018-09-18T13:23:11.882Z,135
2018-09-18T13:24:20.545Z,135
2018-09-18T13:25:29.459Z,135
2018-09-18T13:26:38.380Z,135
2018-09-18T13:27:47.053Z,135
2018-09-18T13:28:55.697Z,135
2018-09-18T13:30:04.935Z,135
2018-09-18T13:31:13.599Z,135
2018-09-18T13:32:22.245Z,130
2018-09-18T13:33:30.892Z,130
2018-09-18T13:34:39.551Z,130
2018-09-18T13:35:48.202Z,130
2018-09-18T13:36:56.872Z,130
2018-09-18T13:38:05.512Z,130
2018-09-18T13:39:14.171Z,130
2018-09-18T13:40:22.818Z,130
2018-09-18T13:41:31.763Z,130
2018-09-18T13:42:40.406Z,130
2018-09-18T13:43:49.069Z,130
2018-09-18T13:44:57.721Z,125
2018-09-18T13:46:06.385Z,125
2018-09-18T13:47:15.041Z,125
2018-09-18T13:48:23.693Z,125
2018-09-18T13:49:32.344Z,125
2018-09-18T13:50:40.997Z,120
2018-09-18T13:51:49.714Z,120
2018-09-18T13:52:58.574Z,120
2018-09-18T13:54:07.233Z,120
2018-09-18T13:55:15.897Z,120
2018-09-18T13:56:24.714Z,120
2018-09-18T13:57:33.208Z,120
2018-09-18T13:58:41.854Z,120
2018-09-18T13:59:50.497Z,120
2018-09-18T14:00:59.237Z,115
2018-09-18T14:02:08.137Z,115
2018-09-18T14:03:16.762Z,115
2018-09-18T14:04:26.153Z,115
2018-09-18T14:05:34.742Z,115
2018-09-18T14:06:43.385Z,115
2018-09-18T14:07:52.312Z,115
2018-09-18T14:09:01.058Z,115
2018-09-18T14:10:10.155Z,115
2018-09-18T14:11:18.809Z,115
2018-09-18T14:12:27.457Z,115
2018-09-18T14:13:36.122Z,115
2018-09-18T14:14:45.169Z,110
2018-09-18T14:15:53.735Z,110
2018-09-18T14:17:02.655Z,110
2018-09-18T14:18:11.318Z,110
2018-09-18T14:19:19.963Z,110
2018-09-18T14:20:29.016Z,110
2018-09-18T14:21:37.939Z,110
2018-09-18T14:22:46.602Z,105
2018-09-18T14:23:55.529Z,105
2018-09-18T14:25:04.704Z,105
2018-09-18T14:26:13.381Z,105
2018-09-18T14:27:22.306Z,105
2018-09-18T14:28:30.970Z,105
2018-09-18T14:29:39.620Z,105
2018-09-18T14:30:48.279Z,105
2018-09-18T14:31:57.187Z,105
2018-09-18T14:33:05.860Z,100
2018-09-18T14:34:14.761Z,100
2018-09-18T14:35:23.421Z,100
2018-09-18T14:36:32.066Z,100
2018-09-18T14:37:40.728Z,100
2018-09-18T14:38:49.384Z,105
2018-09-18T14:39:58.041Z,100
2018-09-18T14:41:06.954Z,95
2018-09-18T14:42:15.610Z,100
2018-09-18T14:43:24.268Z,95
2018-09-18T14:44:32.942Z,95
2018-09-18T14:45:41.896Z,95
2018-09-18T14:46:50.553Z,95
2018-09-18T14:47:59.201Z,95
2018-09-18T14:49:08.114Z,100
2018-09-18T14:50:17.042Z,100
2018-09-18T14:51:26.088Z,95
2018-09-18T14:52:34.755Z,100
2018-09-18T14:53:43.672Z,95
2018-09-18T14:54:52.330Z,100
2018-09-18T14:56:01.238Z,95
2018-09-18T14:57:10.158Z,95
2018-09-18T14:58:18.810Z,95
2018-09-18T14:59:27.471Z,95
2018-09-18T15:00:36.387Z,95
2018-09-18T15:01:45.036Z,90
2018-09-18T15:02:53.684Z,90
2018-09-18T15:04:02.335Z,90
2018-09-18T15:05:11.001Z,90
2018-09-18T15:06:19.924Z,90
2018-09-18T15:07:29.024Z,95
2018-09-18T15:08:37.668Z,90
2018-09-18T15:09:46.349Z,90
2018-09-18T15:10:54.980Z,85
2018-09-18T15:12:03.904Z,85
2018-09-18T15:13:12.546Z,85
2018-09-18T15:14:21.267Z,85
2018-09-18T15:15:30.155Z,85
2018-09-18T15:16:38.795Z,85
2018-09-18T15:17:47.454Z,80
2018-09-18T15:18:56.094Z,80
2018-09-18T15:20:05.019Z,80
2018-09-18T15:21:13.674Z,80
2018-09-18T15:22:22.329Z,80
2018-09-18T15:23:30.973Z,80
2018-09-18T15:24:39.635Z,80
2018-09-18T15:25:48.284Z,75
2018-09-18T15:26:56.949Z,80
2018-09-18T15:28:05.965Z,75
2018-09-18T15:29:14.886Z,75
2018-09-18T15:30:23.804Z,75
2018-09-18T15:31:32.727Z,80
2018-09-18T15:32:41.377Z,80
2018-09-18T15:33:50.104Z,80
2018-09-18T15:34:58.685Z,75
2018-09-18T15:36:07.342Z,75
2018-09-18T15:37:16.002Z,75
2018-09-18T15:38:24.655Z,75
2018-09-18T15:39:33.341Z,75
2018-09-18T15:40:41.956Z,75
2018-09-18T15:41:50.614Z,75
2018-09-18T15:42:59.301Z,70
2018-09-18T15:44:07.930Z,70
2018-09-18T15:45:17.102Z,70
2018-09-18T15:46:25.759Z,70
2018-09-18T15:47:34.418Z,70
2018-09-18T15:48:43.072Z,70
2018-09-18T15:49:51.719Z,70
2018-09-18T15:51:00.644Z,70
2018-09-18T15:52:09.404Z,65
2018-09-18T15:53:17.952Z,65
2018-09-18T15:54:26.601Z,65
2018-09-18T15:55:35.256Z,65
2018-09-18T15:56:44.173Z,65
2018-09-18T15:57:53.607Z,65
2018-09-18T15:59:02.603Z,65
2018-09-18T16:00:11.249Z,65
2018-09-18T16:01:19.940Z,65
2018-09-18T16:02:28.558Z,65
2018-09-18T16:03:37.263Z,60
2018-09-18T16:04:46.123Z,60
2018-09-18T16:05:54.774Z,60
2018-09-18T16:07:03.427Z,60
2018-09-18T16:08:12.083Z,60
2018-09-18T16:09:21.019Z,60
2018-09-18T16:10:29.677Z,60
2018-09-18T16:11:38.328Z,60
2018-09-18T16:12:46.985Z,55
2018-09-18T16:13:55.648Z,55
2018-09-18T16:15:04.316Z,55
2018-09-18T16:16:13.672Z,55
2018-09-18T16:17:22.215Z,55